sensor_id;sensor_type;location;lat;lon;timestamp;pressure;altitude;pressure_sealevel;temperature;humidity
54854;BME280;40747;49.480;8.658;2023-04-03T00:01:14;101304.50;;;4.27;80.74
54854;BME280;40747;49.480;8.658;2023-04-03T00:03:39;101301.88;;;4.27;80.85
54854;BME280;40747;49.480;8.658;2023-04-03T00:06:06;101313.22;;;4.28;82.86
54854;BME280;40747;49.480;8.658;2023-04-03T00:08:34;101307.97;;;4.26;81.91
54854;BME280;40747;49.480;8.658;2023-04-03T00:10:59;101309.69;;;4.25;81.26
54854;BME280;40747;49.480;8.658;2023-04-03T00:13:25;101303.56;;;4.22;81.78
54854;BME280;40747;49.480;8.658;2023-04-03T00:15:51;101313.94;;;4.16;83.47
54854;BME280;40747;49.480;8.658;2023-04-03T00:18:16;101307.81;;;4.10;82.84
54854;BME280;40747;49.480;8.658;2023-04-03T00:20:42;101316.59;;;4.20;83.32
54854;BME280;40747;49.480;8.658;2023-04-03T00:23:07;101311.31;;;4.14;82.98
54854;BME280;40747;49.480;8.658;2023-04-03T00:25:33;101316.56;;;4.16;82.04
54854;BME280;40747;49.480;8.658;2023-04-03T00:28:00;101298.94;;;3.96;81.83
54854;BME280;40747;49.480;8.658;2023-04-03T00:30:25;101322.44;;;3.99;81.30
54854;BME280;40747;49.480;8.658;2023-04-03T00:32:51;101326.00;;;4.06;82.94
54854;BME280;40747;49.480;8.658;2023-04-03T00:35:18;101324.25;;;4.05;83.47
54854;BME280;40747;49.480;8.658;2023-04-03T00:37:44;101328.59;;;4.04;84.22
54854;BME280;40747;49.480;8.658;2023-04-03T00:40:10;101326.78;;;4.00;84.77
54854;BME280;40747;49.480;8.658;2023-04-03T00:42:37;101335.41;;;3.96;84.10
54854;BME280;40747;49.480;8.658;2023-04-03T00:47:29;101335.28;;;3.84;84.21
54854;BME280;40747;49.480;8.658;2023-04-03T00:49:55;101330.00;;;3.79;83.88
54854;BME280;40747;49.480;8.658;2023-04-03T00:52:25;101336.97;;;3.80;83.58
54854;BME280;40747;49.480;8.658;2023-04-03T00:54:52;101331.75;;;3.80;83.20
54854;BME280;40747;49.480;8.658;2023-04-03T00:57:19;101323.75;;;3.66;83.29
54854;BME280;40747;49.480;8.658;2023-04-03T00:59:49;101330.81;;;3.73;83.32
54854;BME280;40747;49.480;8.658;2023-04-03T01:02:16;101333.25;;;3.64;84.40
54854;BME280;40747;49.480;8.658;2023-04-03T01:04:43;101334.19;;;3.68;84.33
54854;BME280;40747;49.480;8.658;2023-04-03T01:07:12;101323.66;;;3.60;84.60
54854;BME280;40747;49.480;8.658;2023-04-03T01:09:39;101331.56;;;3.66;84.99
54854;BME280;40747;49.480;8.658;2023-04-03T01:12:16;101338.44;;;3.61;84.64
54854;BME280;40747;49.480;8.658;2023-04-03T01:14:42;101333.06;;;3.50;85.22
54854;BME280;40747;49.480;8.658;2023-04-03T01:17:28;101333.75;;;3.38;85.12
54854;BME280;40747;49.480;8.658;2023-04-03T01:25:22;101324.06;;;3.30;86.58
54854;BME280;40747;49.480;8.658;2023-04-03T01:27:48;101317.06;;;3.24;86.16
54854;BME280;40747;49.480;8.658;2023-04-03T01:30:14;101320.50;;;3.23;86.39
54854;BME280;40747;49.480;8.658;2023-04-03T01:32:41;101322.97;;;3.14;86.64
54854;BME280;40747;49.480;8.658;2023-04-03T01:35:08;101332.44;;;3.08;85.83
54854;BME280;40747;49.480;8.658;2023-04-03T01:37:34;101325.25;;;2.93;85.54
54854;BME280;40747;49.480;8.658;2023-04-03T01:40:00;101329.78;;;2.56;84.40
54854;BME280;40747;49.480;8.658;2023-04-03T01:42:25;101326.50;;;2.67;84.68
54854;BME280;40747;49.480;8.658;2023-04-03T01:44:50;101335.41;;;2.79;85.73
54854;BME280;40747;49.480;8.658;2023-04-03T01:47:15;101342.47;;;2.87;85.61
54854;BME280;40747;49.480;8.658;2023-04-03T01:49:41;101334.78;;;2.93;86.26
54854;BME280;40747;49.480;8.658;2023-04-03T01:52:06;101330.34;;;2.87;86.88
54854;BME280;40747;49.480;8.658;2023-04-03T01:54:31;101350.41;;;2.93;86.26
54854;BME280;40747;49.480;8.658;2023-04-03T01:56:57;101348.50;;;2.84;88.27
54854;BME280;40747;49.480;8.658;2023-04-03T01:59:22;101345.53;;;2.64;88.43
54854;BME280;40747;49.480;8.658;2023-04-03T02:01:47;101342.84;;;2.59;88.93
54854;BME280;40747;49.480;8.658;2023-04-03T02:04:13;101340.34;;;2.66;89.55
54854;BME280;40747;49.480;8.658;2023-04-03T02:06:38;101349.72;;;2.56;89.62
54854;BME280;40747;49.480;8.658;2023-04-03T02:09:04;101335.69;;;2.48;89.12
54854;BME280;40747;49.480;8.658;2023-04-03T02:11:30;101337.56;;;2.55;89.60
54854;BME280;40747;49.480;8.658;2023-04-03T02:13:55;101349.41;;;2.40;89.69
54854;BME280;40747;49.480;8.658;2023-04-03T02:16:21;101352.09;;;2.43;90.13
54854;BME280;40747;49.480;8.658;2023-04-03T02:18:46;101349.56;;;2.48;90.05
54854;BME280;40747;49.480;8.658;2023-04-03T02:21:11;101349.63;;;2.50;89.60
54854;BME280;40747;49.480;8.658;2023-04-03T02:23:36;101339.16;;;2.48;89.34
54854;BME280;40747;49.480;8.658;2023-04-03T02:26:07;101340.06;;;2.50;88.95
54854;BME280;40747;49.480;8.658;2023-04-03T02:28:34;101346.22;;;2.54;88.89
54854;BME280;40747;49.480;8.658;2023-04-03T02:30:59;101342.81;;;2.58;89.02
54854;BME280;40747;49.480;8.658;2023-04-03T02:33:25;101340.19;;;2.55;88.51
54854;BME280;40747;49.480;8.658;2023-04-03T02:35:54;101340.19;;;2.56;88.55
54854;BME280;40747;49.480;8.658;2023-04-03T02:38:20;101334.00;;;2.50;87.97
54854;BME280;40747;49.480;8.658;2023-04-03T02:40:45;101332.09;;;2.41;87.39
54854;BME280;40747;49.480;8.658;2023-04-03T02:43:10;101340.03;;;2.47;87.66
54854;BME280;40747;49.480;8.658;2023-04-03T02:45:36;101340.03;;;2.47;87.44
54854;BME280;40747;49.480;8.658;2023-04-03T02:48:01;101329.44;;;2.38;87.62
54854;BME280;40747;49.480;8.658;2023-04-03T02:50:26;101343.41;;;2.43;87.78
54854;BME280;40747;49.480;8.658;2023-04-03T02:52:52;101335.53;;;2.38;87.46
54854;BME280;40747;49.480;8.658;2023-04-03T02:55:17;101338.09;;;2.37;87.54
54854;BME280;40747;49.480;8.658;2023-04-03T02:57:42;101344.88;;;2.30;87.77
54854;BME280;40747;49.480;8.658;2023-04-03T03:00:08;101335.25;;;2.24;87.87
54854;BME280;40747;49.480;8.658;2023-04-03T03:02:35;101331.66;;;2.18;88.38
54854;BME280;40747;49.480;8.658;2023-04-03T03:05:00;101346.50;;;2.25;88.30
54854;BME280;40747;49.480;8.658;2023-04-03T03:07:25;101323.88;;;2.18;88.20
54854;BME280;40747;49.480;8.658;2023-04-03T03:09:51;101337.00;;;2.24;88.18
54854;BME280;40747;49.480;8.658;2023-04-03T03:12:16;101328.28;;;2.22;88.66
54854;BME280;40747;49.480;8.658;2023-04-03T03:14:46;101328.13;;;2.14;88.39
54854;BME280;40747;49.480;8.658;2023-04-03T03:17:11;101321.16;;;2.13;89.15
54854;BME280;40747;49.480;8.658;2023-04-03T03:19:36;101326.50;;;2.19;89.61
54854;BME280;40747;49.480;8.658;2023-04-03T03:22:02;101335.06;;;2.15;89.59
54854;BME280;40747;49.480;8.658;2023-04-03T03:24:27;101333.25;;;2.11;88.39
54854;BME280;40747;49.480;8.658;2023-04-03T03:26:52;101291.97;;;1.84;88.42
54854;BME280;40747;49.480;8.658;2023-04-03T03:29:18;101338.38;;;2.08;88.49
54854;BME280;40747;49.480;8.658;2023-04-03T03:31:43;101333.06;;;2.02;88.48
54854;BME280;40747;49.480;8.658;2023-04-03T03:34:08;101341.75;;;2.02;88.41
54854;BME280;40747;49.480;8.658;2023-04-03T03:36:33;101348.78;;;2.08;89.09
54854;BME280;40747;49.480;8.658;2023-04-03T03:38:59;101347.88;;;2.06;88.74
54854;BME280;40747;49.480;8.658;2023-04-03T03:41:24;101340.00;;;2.03;88.75
54854;BME280;40747;49.480;8.658;2023-04-03T03:43:50;101318.94;;;1.89;88.35
54854;BME280;40747;49.480;8.658;2023-04-03T03:46:15;101344.34;;;2.02;88.67
54854;BME280;40747;49.480;8.658;2023-04-03T03:48:41;101332.94;;;1.95;88.96
54854;BME280;40747;49.480;8.658;2023-04-03T03:51:06;101336.47;;;1.99;89.12
54854;BME280;40747;49.480;8.658;2023-04-03T03:53:32;101325.06;;;1.91;89.64
54854;BME280;40747;49.480;8.658;2023-04-03T03:55:57;101357.34;;;2.02;89.44
54854;BME280;40747;49.480;8.658;2023-04-03T03:58:22;101349.41;;;1.96;89.82
54854;BME280;40747;49.480;8.658;2023-04-03T04:00:48;101336.97;;;1.83;90.09
54854;BME280;40747;49.480;8.658;2023-04-03T04:03:13;101356.09;;;1.85;90.64
54854;BME280;40747;49.480;8.658;2023-04-03T04:05:38;101354.31;;;1.82;90.25
54854;BME280;40747;49.480;8.658;2023-04-03T04:08:04;101361.25;;;1.83;90.39
54854;BME280;40747;49.480;8.658;2023-04-03T04:10:29;101353.47;;;1.83;89.72
54854;BME280;40747;49.480;8.658;2023-04-03T04:12:54;101348.84;;;1.71;89.53
54854;BME280;40747;49.480;8.658;2023-04-03T04:15:19;101350.72;;;1.75;89.29
54854;BME280;40747;49.480;8.658;2023-04-03T04:17:46;101287.41;;;1.32;89.38
54854;BME280;40747;49.480;8.658;2023-04-03T04:20:11;101351.28;;;1.63;89.31
54854;BME280;40747;49.480;8.658;2023-04-03T04:22:37;101347.78;;;1.60;89.52
54854;BME280;40747;49.480;8.658;2023-04-03T04:25:04;101335.50;;;1.54;90.51
54854;BME280;40747;49.480;8.658;2023-04-03T04:27:29;101357.44;;;1.67;90.15
54854;BME280;40747;49.480;8.658;2023-04-03T04:29:55;101349.59;;;1.64;89.62
54854;BME280;40747;49.480;8.658;2023-04-03T04:32:20;101352.25;;;1.67;89.54
54854;BME280;40747;49.480;8.658;2023-04-03T04:34:45;101346.03;;;1.60;89.72
54854;BME280;40747;49.480;8.658;2023-04-03T04:37:10;101333.84;;;1.56;89.88
54854;BME280;40747;49.480;8.658;2023-04-03T04:39:36;101356.22;;;1.51;90.14
54854;BME280;40747;49.480;8.658;2023-04-03T04:42:01;101347.53;;;1.51;89.58
54854;BME280;40747;49.480;8.658;2023-04-03T04:44:27;101343.00;;;1.42;90.20
54854;BME280;40747;49.480;8.658;2023-04-03T04:46:52;101337.69;;;1.36;90.13
54854;BME280;40747;49.480;8.658;2023-04-03T04:49:17;101349.97;;;1.44;90.20
54854;BME280;40747;49.480;8.658;2023-04-03T04:51:42;101352.59;;;1.44;89.86
54854;BME280;40747;49.480;8.658;2023-04-03T04:54:08;101340.50;;;1.45;90.29
54854;BME280;40747;49.480;8.658;2023-04-03T04:56:33;101350.13;;;1.51;89.83
54854;BME280;40747;49.480;8.658;2023-04-03T04:58:58;101347.50;;;1.49;90.09
54854;BME280;40747;49.480;8.658;2023-04-03T05:01:24;101359.00;;;1.59;88.80
54854;BME280;40747;49.480;8.658;2023-04-03T05:03:49;101356.25;;;1.53;89.42
54854;BME280;40747;49.480;8.658;2023-04-03T05:06:15;101341.28;;;1.41;89.80
54854;BME280;40747;49.480;8.658;2023-04-03T05:08:40;101354.94;;;1.34;90.07
54854;BME280;40747;49.480;8.658;2023-04-03T05:11:05;101353.22;;;1.34;89.84
54854;BME280;40747;49.480;8.658;2023-04-03T05:13:31;101355.03;;;1.02;90.91
54854;BME280;40747;49.480;8.658;2023-04-03T05:15:56;101364.22;;;1.24;90.98
54854;BME280;40747;49.480;8.658;2023-04-03T05:18:21;101364.03;;;1.16;91.27
54854;BME280;40747;49.480;8.658;2023-04-03T05:20:48;101368.31;;;1.14;90.95
54854;BME280;40747;49.480;8.658;2023-04-03T05:23:14;101371.47;;;1.02;91.67
54854;BME280;40747;49.480;8.658;2023-04-03T05:25:40;101370.78;;;1.09;91.73
54854;BME280;40747;49.480;8.658;2023-04-03T05:28:06;101373.75;;;1.25;92.15
54854;BME280;40747;49.480;8.658;2023-04-03T05:30:31;101358.34;;;1.31;91.42
54854;BME280;40747;49.480;8.658;2023-04-03T05:32:58;101374.22;;;1.43;90.83
54854;BME280;40747;49.480;8.658;2023-04-03T05:35:23;101373.44;;;1.47;90.78
54854;BME280;40747;49.480;8.658;2023-04-03T05:37:49;101365.66;;;1.47;90.68
54854;BME280;40747;49.480;8.658;2023-04-03T05:40:15;101370.13;;;1.55;90.12
54854;BME280;40747;49.480;8.658;2023-04-03T05:42:40;101362.34;;;1.55;89.90
54854;BME280;40747;49.480;8.658;2023-04-03T05:45:06;101371.19;;;1.63;90.40
54854;BME280;40747;49.480;8.658;2023-04-03T05:47:31;101369.44;;;1.62;89.93
54854;BME280;40747;49.480;8.658;2023-04-03T05:49:57;101379.03;;;1.66;90.17
54854;BME280;40747;49.480;8.658;2023-04-03T05:52:28;101383.53;;;1.72;89.91
54854;BME280;40747;49.480;8.658;2023-04-03T05:54:54;101384.34;;;1.69;90.32
54854;BME280;40747;49.480;8.658;2023-04-03T05:57:19;101380.97;;;1.75;90.06
54854;BME280;40747;49.480;8.658;2023-04-03T05:59:46;101391.47;;;1.41;89.65
54854;BME280;40747;49.480;8.658;2023-04-03T06:02:17;101381.38;;;1.54;90.85
54854;BME280;40747;49.480;8.658;2023-04-03T06:04:43;101390.19;;;1.60;90.84
54854;BME280;40747;49.480;8.658;2023-04-03T06:07:13;101374.44;;;1.53;89.68
54854;BME280;40747;49.480;8.658;2023-04-03T06:09:40;101374.28;;;1.46;90.60
54854;BME280;40747;49.480;8.658;2023-04-03T06:12:06;101385.59;;;1.49;91.23
54854;BME280;40747;49.480;8.658;2023-04-03T06:14:31;101383.41;;;1.67;91.08
54854;BME280;40747;49.480;8.658;2023-04-03T06:16:57;101381.97;;;1.80;90.59
54854;BME280;40747;49.480;8.658;2023-04-03T06:19:22;101393.28;;;1.82;90.31
54854;BME280;40747;49.480;8.658;2023-04-03T06:21:48;101393.28;;;1.82;90.34
54854;BME280;40747;49.480;8.658;2023-04-03T06:24:15;101393.56;;;1.94;90.10
54854;BME280;40747;49.480;8.658;2023-04-03T06:26:42;101399.91;;;2.07;90.09
54854;BME280;40747;49.480;8.658;2023-04-03T06:29:07;101394.69;;;2.07;90.61
54854;BME280;40747;49.480;8.658;2023-04-03T06:31:33;101403.56;;;2.17;90.98
54854;BME280;40747;49.480;8.658;2023-04-03T06:33:58;101387.09;;;2.17;90.65
54854;BME280;40747;49.480;8.658;2023-04-03T06:36:23;101392.63;;;2.34;90.06
54854;BME280;40747;49.480;8.658;2023-04-03T06:38:49;101401.50;;;2.43;90.27
54854;BME280;40747;49.480;8.658;2023-04-03T06:41:15;101395.50;;;2.48;90.67
54854;BME280;40747;49.480;8.658;2023-04-03T06:43:42;101400.94;;;2.58;90.40
54854;BME280;40747;49.480;8.658;2023-04-03T06:46:19;101403.91;;;2.78;88.81
54854;BME280;40747;49.480;8.658;2023-04-03T06:48:45;101407.50;;;2.85;88.29
54854;BME280;40747;49.480;8.658;2023-04-03T06:51:29;101406.91;;;3.00;87.60
54854;BME280;40747;49.480;8.658;2023-04-03T06:53:57;101415.53;;;2.99;87.97
54854;BME280;40747;49.480;8.658;2023-04-03T06:56:24;101410.47;;;3.05;87.06
54854;BME280;40747;49.480;8.658;2023-04-03T06:58:50;101415.88;;;3.16;87.41
54854;BME280;40747;49.480;8.658;2023-04-03T07:01:17;101417.75;;;3.25;87.02
54854;BME280;40747;49.480;8.658;2023-04-03T07:03:44;101405.63;;;3.28;86.73
54854;BME280;40747;49.480;8.658;2023-04-03T07:06:11;101416.38;;;3.47;87.22
54854;BME280;40747;49.480;8.658;2023-04-03T07:08:37;101425.94;;;3.48;84.74
54854;BME280;40747;49.480;8.658;2023-04-03T07:11:03;101426.91;;;3.55;84.94
54854;BME280;40747;49.480;8.658;2023-04-03T07:13:29;101424.41;;;3.61;85.27
54854;BME280;40747;49.480;8.658;2023-04-03T07:15:54;101432.38;;;3.70;83.73
54854;BME280;40747;49.480;8.658;2023-04-03T07:18:19;101433.53;;;3.89;83.03
54854;BME280;40747;49.480;8.658;2023-04-03T07:20:46;101432.78;;;3.98;83.81
54854;BME280;40747;49.480;8.658;2023-04-03T07:23:12;101430.22;;;4.03;82.72
54854;BME280;40747;49.480;8.658;2023-04-03T07:25:45;101446.91;;;4.14;82.37
54854;BME280;40747;49.480;8.658;2023-04-03T07:28:11;101437.56;;;4.29;82.43
54854;BME280;40747;49.480;8.658;2023-04-03T07:30:51;101437.88;;;4.56;80.71
54854;BME280;40747;49.480;8.658;2023-04-03T07:33:18;101436.91;;;4.45;80.18
54854;BME280;40747;49.480;8.658;2023-04-03T07:35:45;101437.91;;;4.58;78.98
54854;BME280;40747;49.480;8.658;2023-04-03T07:38:11;101431.53;;;4.34;77.97
54854;BME280;40747;49.480;8.658;2023-04-03T07:40:37;101447.38;;;4.50;78.99
54854;BME280;40747;49.480;8.658;2023-04-03T07:43:03;101445.06;;;4.74;77.54
54854;BME280;40747;49.480;8.658;2023-04-03T07:45:29;101438.25;;;4.87;76.69
54854;BME280;40747;49.480;8.658;2023-04-03T07:47:54;101453.03;;;4.88;75.76
54854;BME280;40747;49.480;8.658;2023-04-03T07:50:20;101448.06;;;5.12;74.55
54854;BME280;40747;49.480;8.658;2023-04-03T07:52:45;101447.63;;;5.61;74.16
54854;BME280;40747;49.480;8.658;2023-04-03T07:55:11;101439.53;;;5.31;72.67
54854;BME280;40747;49.480;8.658;2023-04-03T07:57:36;101441.34;;;5.38;73.07
54854;BME280;40747;49.480;8.658;2023-04-03T08:00:04;101437.19;;;5.62;72.43
54854;BME280;40747;49.480;8.658;2023-04-03T08:02:30;101446.88;;;5.79;72.21
54854;BME280;40747;49.480;8.658;2023-04-03T08:04:57;101449.78;;;6.13;71.29
54854;BME280;40747;49.480;8.658;2023-04-03T08:07:22;101443.41;;;5.80;70.00
54854;BME280;40747;49.480;8.658;2023-04-03T08:09:48;101443.78;;;6.42;68.30
54854;BME280;40747;49.480;8.658;2023-04-03T08:12:13;101441.25;;;6.63;68.34
54854;BME280;40747;49.480;8.658;2023-04-03T08:14:39;101438.75;;;6.96;64.57
54854;BME280;40747;49.480;8.658;2023-04-03T08:17:05;101440.50;;;7.04;64.96
54854;BME280;40747;49.480;8.658;2023-04-03T08:19:30;101438.66;;;6.63;66.74
54854;BME280;40747;49.480;8.658;2023-04-03T08:21:56;101428.28;;;7.00;65.14
54854;BME280;40747;49.480;8.658;2023-04-03T08:24:24;101438.78;;;7.19;65.73
54854;BME280;40747;49.480;8.658;2023-04-03T08:26:50;101423.94;;;7.09;65.22
54854;BME280;40747;49.480;8.658;2023-04-03T08:29:15;101436.16;;;7.45;63.02
54854;BME280;40747;49.480;8.658;2023-04-03T08:31:40;101444.91;;;7.55;63.53
54854;BME280;40747;49.480;8.658;2023-04-03T08:34:06;101438.81;;;7.33;63.16
54854;BME280;40747;49.480;8.658;2023-04-03T08:36:31;101437.03;;;7.19;63.56
54854;BME280;40747;49.480;8.658;2023-04-03T08:38:57;101434.41;;;7.19;61.93
54854;BME280;40747;49.480;8.658;2023-04-03T08:41:35;101437.03;;;7.21;59.98
54854;BME280;40747;49.480;8.658;2023-04-03T08:49:35;101436.84;;;8.57;59.49
54854;BME280;40747;49.480;8.658;2023-04-03T08:52:05;101444.88;;;7.87;56.62
54854;BME280;40747;49.480;8.658;2023-04-03T08:54:40;101435.25;;;8.10;57.24
54854;BME280;40747;49.480;8.658;2023-04-03T08:57:09;101401.78;;;8.64;56.40
54854;BME280;40747;49.480;8.658;2023-04-03T08:59:38;101441.28;;;8.38;56.40
54854;BME280;40747;49.480;8.658;2023-04-03T09:02:17;101441.25;;;8.41;55.85
54854;BME280;40747;49.480;8.658;2023-04-03T09:04:46;101414.00;;;8.75;54.60
54854;BME280;40747;49.480;8.658;2023-04-03T09:07:18;101428.59;;;9.19;55.26
54854;BME280;40747;49.480;8.658;2023-04-03T09:09:47;101434.13;;;8.74;54.14
54854;BME280;40747;49.480;8.658;2023-04-03T09:12:21;101431.22;;;9.19;54.55
54854;BME280;40747;49.480;8.658;2023-04-03T09:22:38;101420.88;;;8.94;55.73
54854;BME280;40747;49.480;8.658;2023-04-03T09:25:17;101424.22;;;9.18;53.18
54854;BME280;40747;49.480;8.658;2023-04-03T09:27:44;101426.47;;;8.20;53.64
54854;BME280;40747;49.480;8.658;2023-04-03T09:30:17;101423.88;;;8.11;54.78
54854;BME280;40747;49.480;8.658;2023-04-03T09:32:49;101407.13;;;8.35;54.31
54854;BME280;40747;49.480;8.658;2023-04-03T09:35:32;101421.13;;;8.42;52.67
54854;BME280;40747;49.480;8.658;2023-04-03T09:38:01;101426.44;;;8.26;52.85
54854;BME280;40747;49.480;8.658;2023-04-03T09:42:55;101410.28;;;9.10;54.65
54854;BME280;40747;49.480;8.658;2023-04-03T09:45:27;101400.88;;;8.75;51.67
54854;BME280;40747;49.480;8.658;2023-04-03T09:48:16;101418.19;;;9.08;53.80
54854;BME280;40747;49.480;8.658;2023-04-03T09:51:03;101412.44;;;8.30;53.62
54854;BME280;40747;49.480;8.658;2023-04-03T09:53:35;101412.47;;;8.12;53.85
54854;BME280;40747;49.480;8.658;2023-04-03T09:56:04;101423.03;;;7.93;55.34
54854;BME280;40747;49.480;8.658;2023-04-03T09:58:33;101396.84;;;7.62;53.53
54854;BME280;40747;49.480;8.658;2023-04-03T10:01:02;101411.59;;;8.14;53.43
54854;BME280;40747;49.480;8.658;2023-04-03T10:03:31;101421.91;;;8.65;52.38
54854;BME280;40747;49.480;8.658;2023-04-03T10:05:58;101422.88;;;8.43;52.57
54854;BME280;40747;49.480;8.658;2023-04-03T10:08:30;101416.78;;;8.28;51.40
54854;BME280;40747;49.480;8.658;2023-04-03T10:11:11;101408.19;;;9.52;52.34
54854;BME280;40747;49.480;8.658;2023-04-03T10:13:50;101406.53;;;9.42;51.33
54854;BME280;40747;49.480;8.658;2023-04-03T10:16:20;101406.84;;;8.98;53.37
54854;BME280;40747;49.480;8.658;2023-04-03T10:18:56;101392.00;;;8.93;51.24
54854;BME280;40747;49.480;8.658;2023-04-03T10:26:45;101398.31;;;9.77;51.40
54854;BME280;40747;49.480;8.658;2023-04-03T10:32:10;101391.94;;;9.97;52.02
54854;BME280;40747;49.480;8.658;2023-04-03T10:34:42;101394.06;;;10.45;50.85
54854;BME280;40747;49.480;8.658;2023-04-03T10:37:23;101402.25;;;11.45;49.19
54854;BME280;40747;49.480;8.658;2023-04-03T10:42:39;101391.06;;;11.80;47.23
54854;BME280;40747;49.480;8.658;2023-04-03T10:45:29;101409.41;;;11.37;47.71
54854;BME280;40747;49.480;8.658;2023-04-03T11:01:39;101405.56;;;10.38;45.99
54854;BME280;40747;49.480;8.658;2023-04-03T11:04:06;101406.47;;;10.33;46.74
54854;BME280;40747;49.480;8.658;2023-04-03T11:06:49;101393.69;;;10.71;46.60
54854;BME280;40747;49.480;8.658;2023-04-03T11:09:28;101392.22;;;11.64;46.67
54854;BME280;40747;49.480;8.658;2023-04-03T11:12:02;101395.81;;;11.61;45.46
54854;BME280;40747;49.480;8.658;2023-04-03T11:14:32;101386.22;;;11.03;45.28
54854;BME280;40747;49.480;8.658;2023-04-03T11:19:52;101398.13;;;10.68;45.82
54854;BME280;40747;49.480;8.658;2023-04-03T11:22:39;101404.81;;;9.38;47.42
54854;BME280;40747;49.480;8.658;2023-04-03T11:27:47;101399.66;;;9.24;47.03
54854;BME280;40747;49.480;8.658;2023-04-03T11:30:23;101389.19;;;9.17;49.41
54854;BME280;40747;49.480;8.658;2023-04-03T11:36:05;101391.50;;;9.55;46.83
54854;BME280;40747;49.480;8.658;2023-04-03T11:38:34;101388.38;;;9.11;47.63
54854;BME280;40747;49.480;8.658;2023-04-03T11:41:02;101390.00;;;9.26;47.27
54854;BME280;40747;49.480;8.658;2023-04-03T11:43:31;101382.00;;;9.38;48.36
54854;BME280;40747;49.480;8.658;2023-04-03T11:45:57;101394.53;;;9.07;48.97
54854;BME280;40747;49.480;8.658;2023-04-03T11:51:00;101394.06;;;8.26;50.26
54854;BME280;40747;49.480;8.658;2023-04-03T11:53:37;101383.50;;;8.46;49.84
54854;BME280;40747;49.480;8.658;2023-04-03T12:01:54;101365.91;;;8.65;49.93
54854;BME280;40747;49.480;8.658;2023-04-03T12:04:22;101363.97;;;8.89;49.58
54854;BME280;40747;49.480;8.658;2023-04-03T12:12:35;101371.41;;;9.47;48.48
54854;BME280;40747;49.480;8.658;2023-04-03T12:15:44;101365.94;;;9.67;49.64
54854;BME280;40747;49.480;8.658;2023-04-03T12:18:31;101367.34;;;9.99;48.28
54854;BME280;40747;49.480;8.658;2023-04-03T12:20:58;101354.91;;;10.14;46.76
54854;BME280;40747;49.480;8.658;2023-04-03T12:23:29;101334.22;;;10.56;44.53
54854;BME280;40747;49.480;8.658;2023-04-03T12:26:18;101348.09;;;9.97;46.23
54854;BME280;40747;49.480;8.658;2023-04-03T12:28:45;101339.78;;;10.30;47.24
54854;BME280;40747;49.480;8.658;2023-04-03T12:31:12;101334.75;;;9.30;47.19
54854;BME280;40747;49.480;8.658;2023-04-03T12:34:09;101342.88;;;9.01;47.89
54854;BME280;40747;49.480;8.658;2023-04-03T12:36:54;101348.94;;;9.11;48.56
54854;BME280;40747;49.480;8.658;2023-04-03T12:44:56;101335.03;;;8.98;50.77
54854;BME280;40747;49.480;8.658;2023-04-03T12:47:34;101333.50;;;8.66;51.37
54854;BME280;40747;49.480;8.658;2023-04-03T12:50:02;101349.25;;;8.64;50.78
54854;BME280;40747;49.480;8.658;2023-04-03T12:52:37;101346.81;;;8.24;52.53
54854;BME280;40747;49.480;8.658;2023-04-03T12:55:11;101332.66;;;8.59;52.39
54854;BME280;40747;49.480;8.658;2023-04-03T12:57:38;101339.69;;;8.52;51.51
54854;BME280;40747;49.480;8.658;2023-04-03T13:02:46;101338.88;;;8.43;49.65
54854;BME280;40747;49.480;8.658;2023-04-03T13:05:17;101332.81;;;8.25;48.81
54854;BME280;40747;49.480;8.658;2023-04-03T13:07:43;101324.94;;;8.27;50.20
54854;BME280;40747;49.480;8.658;2023-04-03T13:12:35;101313.38;;;8.63;49.65
54854;BME280;40747;49.480;8.658;2023-04-03T13:15:16;101325.81;;;8.26;49.88
54854;BME280;40747;49.480;8.658;2023-04-03T13:17:43;101319.75;;;8.13;52.54
54854;BME280;40747;49.480;8.658;2023-04-03T13:20:14;101313.69;;;8.04;51.02
54854;BME280;40747;49.480;8.658;2023-04-03T13:25:20;101324.06;;;8.26;51.65
54854;BME280;40747;49.480;8.658;2023-04-03T13:27:46;101306.53;;;8.28;50.27
54854;BME280;40747;49.480;8.658;2023-04-03T13:30:28;101313.34;;;8.71;50.14
54854;BME280;40747;49.480;8.658;2023-04-03T13:32:56;101313.16;;;8.91;49.80
54854;BME280;40747;49.480;8.658;2023-04-03T13:35:39;101308.13;;;8.63;50.39
54854;BME280;40747;49.480;8.658;2023-04-03T13:38:22;101310.88;;;8.42;49.85
54854;BME280;40747;49.480;8.658;2023-04-03T13:40:52;101318.72;;;8.43;51.47
54854;BME280;40747;49.480;8.658;2023-04-03T13:43:22;101324.00;;;8.42;49.20
54854;BME280;40747;49.480;8.658;2023-04-03T13:46:20;101324.97;;;8.14;49.83
54854;BME280;40747;49.480;8.658;2023-04-03T13:48:50;101318.03;;;8.02;50.52
54854;BME280;40747;49.480;8.658;2023-04-03T13:51:21;101314.44;;;8.27;50.19
54854;BME280;40747;49.480;8.658;2023-04-03T13:53:48;101313.22;;;8.87;47.75
54854;BME280;40747;49.480;8.658;2023-04-03T13:56:23;101299.50;;;9.48;48.37
54854;BME280;40747;49.480;8.658;2023-04-03T14:01:48;101290.88;;;9.35;45.51
54854;BME280;40747;49.480;8.658;2023-04-03T14:04:21;101296.47;;;8.98;46.63
54854;BME280;40747;49.480;8.658;2023-04-03T14:06:48;101287.94;;;8.70;46.48
54854;BME280;40747;49.480;8.658;2023-04-03T14:09:14;101291.16;;;9.05;46.14
54854;BME280;40747;49.480;8.658;2023-04-03T14:11:41;101296.72;;;8.67;45.37
54854;BME280;40747;49.480;8.658;2023-04-03T14:14:20;101285.47;;;8.47;46.31
54854;BME280;40747;49.480;8.658;2023-04-03T14:16:51;101291.53;;;8.55;46.37
54854;BME280;40747;49.480;8.658;2023-04-03T14:19:24;101282.66;;;8.73;46.30
54854;BME280;40747;49.480;8.658;2023-04-03T14:21:51;101280.75;;;8.92;46.23
54854;BME280;40747;49.480;8.658;2023-04-03T14:24:18;101273.94;;;8.68;46.87
54854;BME280;40747;49.480;8.658;2023-04-03T14:26:44;101284.50;;;8.60;48.00
54854;BME280;40747;49.480;8.658;2023-04-03T14:29:12;101281.97;;;8.48;47.50
54854;BME280;40747;49.480;8.658;2023-04-03T14:31:38;101282.84;;;8.42;46.83
54854;BME280;40747;49.480;8.658;2023-04-03T14:34:04;101259.19;;;8.44;45.79